Terminal Aerodrome Forecast
Issued by NWS

Home | Current Version | Previous Version | Text Only | Print | Product List | Glossary On
Versions: 1 2 3 4 5 6 7 8 9 10 11 12
777
FTUS45 KPSR 261722
TAFBLH
TAF
KBLH 261722Z 2618/2718 18012KT P6SM SKC
     FM262100 24015G26KT P6SM SKC
      TEMPO 2622/2702 24018G25KT
     FM270600 26012KT P6SM SKC
     FM270900 22007KT P6SM SKC=

USA.gov is the U.S. government's official web portal to all federal, state and local government web resources and services.